createdAt,value
2019-03-22T00:01:14.620Z,6.90
2019-03-22T00:03:16.825Z,7.00
2019-03-22T00:05:19.034Z,7.00
2019-03-22T00:07:21.528Z,7.10
2019-03-22T00:09:23.733Z,7.00
2019-03-22T00:11:25.950Z,7.00
2019-03-22T00:13:28.157Z,7.00
2019-03-22T00:15:30.449Z,6.90
2019-03-22T00:17:32.660Z,6.90
2019-03-22T00:19:34.865Z,6.80
2019-03-22T00:21:37.076Z,6.80
2019-03-22T00:23:39.569Z,6.80
2019-03-22T00:25:41.765Z,6.80
2019-03-22T00:27:43.989Z,6.80
2019-03-22T00:29:46.992Z,6.70
2019-03-22T00:31:49.690Z,6.60
2019-03-22T00:33:51.897Z,6.60
2019-03-22T00:35:54.099Z,6.60
2019-03-22T00:37:56.306Z,6.60
2019-03-22T00:39:58.518Z,6.60
2019-03-22T00:42:00.725Z,6.70
2019-03-22T00:44:02.939Z,6.60
2019-03-22T00:46:05.392Z,6.60
2019-03-22T00:48:07.616Z,6.50
2019-03-22T00:50:10.233Z,6.50
2019-03-22T00:52:12.765Z,6.50
2019-03-22T00:54:15.212Z,6.40
2019-03-22T00:56:17.434Z,6.40
2019-03-22T00:58:19.633Z,6.40
2019-03-22T01:00:21.842Z,6.30
2019-03-22T01:02:24.067Z,6.30
2019-03-22T01:04:26.629Z,6.30
2019-03-22T01:06:28.841Z,6.30
2019-03-22T01:08:31.050Z,6.30
2019-03-22T01:10:33.262Z,6.30
2019-03-22T01:12:35.481Z,6.30
2019-03-22T01:14:38.049Z,6.30
2019-03-22T01:16:40.265Z,6.40
2019-03-22T01:18:42.478Z,6.30
2019-03-22T01:20:44.684Z,6.20
2019-03-22T01:22:47.015Z,6.10
2019-03-22T01:24:49.226Z,6.10
2019-03-22T01:26:51.450Z,6.10
2019-03-22T01:28:53.665Z,6.10
2019-03-22T01:30:55.868Z,6.10
2019-03-22T01:32:58.089Z,6.10
2019-03-22T01:35:00.371Z,6.10
2019-03-22T01:37:02.613Z,6.10
2019-03-22T01:39:05.551Z,6.10
2019-03-22T01:41:07.756Z,6.10
2019-03-22T01:43:10.280Z,6.00
2019-03-22T01:45:14.425Z,6.00
2019-03-22T01:47:16.641Z,6.00
2019-03-22T01:49:18.849Z,6.00
2019-03-22T01:51:21.067Z,6.00
2019-03-22T01:53:23.376Z,5.90
2019-03-22T01:55:25.921Z,5.90
2019-03-22T01:57:28.157Z,5.80
2019-03-22T01:59:30.453Z,5.80
2019-03-22T02:01:32.658Z,5.90
2019-03-22T02:03:34.873Z,5.90
2019-03-22T02:05:37.094Z,5.90
2019-03-22T02:07:39.309Z,5.80
2019-03-22T02:09:41.714Z,5.60
2019-03-22T02:11:43.919Z,5.50
2019-03-22T02:13:46.133Z,5.50
2019-03-22T02:15:48.342Z,5.50
2019-03-22T02:17:50.558Z,5.50
2019-03-22T02:19:53.069Z,5.50
2019-03-22T02:21:55.281Z,5.60
2019-03-22T02:23:57.496Z,5.50
2019-03-22T02:25:59.702Z,5.50
2019-03-22T02:28:04.387Z,5.60
2019-03-22T02:30:06.287Z,5.70
2019-03-22T02:32:08.504Z,5.70
2019-03-22T02:34:10.719Z,5.70
2019-03-22T02:36:12.938Z,5.70
2019-03-22T02:38:15.163Z,5.70
2019-03-22T02:40:17.629Z,5.70
2019-03-22T02:42:19.841Z,5.70
2019-03-22T02:44:22.049Z,5.70
2019-03-22T02:46:24.265Z,5.70
2019-03-22T02:48:26.477Z,5.80
2019-03-22T02:50:28.677Z,5.80
2019-03-22T02:52:30.924Z,5.80
2019-03-22T02:54:33.135Z,5.80
2019-03-22T02:56:35.602Z,5.70
2019-03-22T02:58:37.917Z,5.70
2019-03-22T03:00:40.126Z,5.50
2019-03-22T03:02:42.602Z,5.50
2019-03-22T03:04:45.134Z,5.50
2019-03-22T03:06:47.357Z,5.40
2019-03-22T03:08:49.570Z,5.40
2019-03-22T03:10:51.785Z,5.30
2019-03-22T03:12:54.062Z,5.30
2019-03-22T03:14:56.567Z,5.20
2019-03-22T03:16:58.833Z,5.10
2019-03-22T03:19:01.070Z,5.10
2019-03-22T03:21:03.454Z,5.00
2019-03-22T03:23:05.699Z,5.00
2019-03-22T03:25:08.064Z,5.10
2019-03-22T03:27:10.565Z,5.00
2019-03-22T03:29:12.786Z,5.00
2019-03-22T03:31:15.011Z,4.90
2019-03-22T03:33:17.336Z,4.90
2019-03-22T03:35:19.676Z,5.00
2019-03-22T03:37:21.961Z,5.00
2019-03-22T03:39:24.278Z,4.90
2019-03-22T03:41:26.485Z,4.90
2019-03-22T03:43:28.704Z,4.90
2019-03-22T03:45:34.638Z,4.90
2019-03-22T03:47:36.930Z,4.90
2019-03-22T03:49:39.873Z,4.80
2019-03-22T03:51:42.095Z,4.70
2019-03-22T03:53:44.320Z,4.70
2019-03-22T03:55:46.537Z,4.60
2019-03-22T03:57:48.744Z,4.60
2019-03-22T03:59:50.966Z,4.70
2019-03-22T04:01:53.177Z,4.70
2019-03-22T04:03:55.394Z,4.70
2019-03-22T04:05:57.605Z,4.70
2019-03-22T04:07:59.812Z,4.70
2019-03-22T04:10:02.069Z,4.70
2019-03-22T04:12:04.299Z,4.70
2019-03-22T04:14:06.602Z,4.80
2019-03-22T04:16:09.154Z,4.80
2019-03-22T04:18:11.394Z,4.70
2019-03-22T04:20:13.694Z,4.70
2019-03-22T04:22:15.898Z,4.70
2019-03-22T04:24:18.122Z,4.70
2019-03-22T04:26:20.329Z,4.70
2019-03-22T04:28:22.547Z,4.70
2019-03-22T04:30:24.763Z,4.70
2019-03-22T04:32:27.311Z,4.60
2019-03-22T04:34:29.626Z,4.60
2019-03-22T04:36:31.842Z,4.70
2019-03-22T04:38:34.036Z,4.70
2019-03-22T04:40:36.253Z,4.80
2019-03-22T04:42:38.466Z,4.80
2019-03-22T04:44:41.643Z,4.70
2019-03-22T04:46:43.853Z,4.70
2019-03-22T04:48:46.317Z,4.70
2019-03-22T04:50:48.530Z,4.60
2019-03-22T04:52:51.072Z,4.60
2019-03-22T04:54:53.295Z,4.60
2019-03-22T04:56:55.517Z,4.60
2019-03-22T04:58:57.730Z,4.50
2019-03-22T05:00:59.937Z,4.50
2019-03-22T05:03:02.442Z,4.50
2019-03-22T05:05:04.729Z,4.50
2019-03-22T05:07:07.442Z,4.50
2019-03-22T05:09:09.661Z,4.50
2019-03-22T05:11:11.876Z,4.50
2019-03-22T05:13:14.081Z,4.50
2019-03-22T05:15:16.416Z,4.50
2019-03-22T05:17:18.925Z,4.40
2019-03-22T05:19:21.141Z,4.30
2019-03-22T05:21:23.914Z,4.30
2019-03-22T05:23:26.119Z,4.40
2019-03-22T05:25:28.329Z,4.40
2019-03-22T05:27:30.585Z,4.40
2019-03-22T05:29:32.809Z,4.50
2019-03-22T05:31:45.373Z,4.50
2019-03-22T05:33:47.588Z,4.50
2019-03-22T05:35:49.806Z,4.50
2019-03-22T05:37:52.012Z,4.50
2019-03-22T05:39:54.466Z,4.60
2019-03-22T05:41:56.669Z,4.50
2019-03-22T05:43:58.977Z,4.50
2019-03-22T05:46:01.193Z,4.50
2019-03-22T05:48:03.401Z,4.60
2019-03-22T05:50:05.697Z,4.60
2019-03-22T05:52:07.910Z,4.60
2019-03-22T05:54:10.362Z,4.70
2019-03-22T05:56:12.596Z,4.70
2019-03-22T05:58:14.793Z,4.80
2019-03-22T06:00:17.609Z,4.90
2019-03-22T06:02:19.811Z,5.00
2019-03-22T06:04:22.023Z,5.10
2019-03-22T06:06:24.241Z,5.20
2019-03-22T06:08:26.713Z,5.20
2019-03-22T06:10:28.934Z,5.30
2019-03-22T06:12:31.140Z,5.30
2019-03-22T06:14:33.697Z,5.40
2019-03-22T06:16:35.905Z,5.40
2019-03-22T06:18:38.121Z,5.40
2019-03-22T06:20:40.355Z,5.40
2019-03-22T06:22:42.580Z,5.50
2019-03-22T06:24:44.793Z,5.50
2019-03-22T06:26:47.010Z,5.50
2019-03-22T06:28:49.227Z,5.60
2019-03-22T06:30:51.429Z,5.50
2019-03-22T06:32:53.638Z,5.50
2019-03-22T06:34:56.766Z,5.50
2019-03-22T06:36:58.992Z,5.60
2019-03-22T06:39:01.198Z,5.70
2019-03-22T06:41:03.422Z,5.80
2019-03-22T06:43:05.626Z,5.70
2019-03-22T06:45:07.854Z,5.80
2019-03-22T06:47:11.208Z,5.80
2019-03-22T06:49:13.957Z,5.80
2019-03-22T06:51:16.169Z,5.90
2019-03-22T06:53:18.382Z,5.90
2019-03-22T06:55:20.613Z,6.00
2019-03-22T06:57:22.830Z,6.10
2019-03-22T06:59:25.039Z,6.10
2019-03-22T07:01:27.273Z,6.20
2019-03-22T07:03:29.472Z,6.30
2019-03-22T07:05:31.942Z,6.50
2019-03-22T07:07:34.149Z,6.80
2019-03-22T07:09:36.357Z,7.10
2019-03-22T07:11:38.607Z,7.40
2019-03-22T07:13:40.822Z,7.50
2019-03-22T07:15:43.306Z,7.50
2019-03-22T07:17:45.523Z,7.70
2019-03-22T07:19:47.729Z,7.90
2019-03-22T07:21:49.939Z,8.00
2019-03-22T07:23:52.246Z,8.20
2019-03-22T07:25:54.749Z,8.50
2019-03-22T07:27:57.184Z,8.70
2019-03-22T07:29:59.389Z,9.20
2019-03-22T07:32:01.613Z,9.60
2019-03-22T07:34:03.821Z,9.90
2019-03-22T07:36:06.029Z,10.20
2019-03-22T07:38:08.247Z,10.30
2019-03-22T07:40:10.615Z,10.60
2019-03-22T07:42:12.830Z,10.60
2019-03-22T07:44:15.335Z,11.00
2019-03-22T07:46:17.612Z,11.20
2019-03-22T07:48:20.055Z,11.30
2019-03-22T07:50:22.257Z,11.30
2019-03-22T07:52:24.472Z,11.20
2019-03-22T07:54:26.676Z,11.50
2019-03-22T07:56:28.897Z,12.00
2019-03-22T07:58:31.101Z,12.50
2019-03-22T08:00:33.621Z,11.70
2019-03-22T08:02:35.841Z,12.30
2019-03-22T08:04:38.050Z,12.00
2019-03-22T08:06:40.273Z,12.80
2019-03-22T08:08:42.473Z,12.90
2019-03-22T08:10:44.668Z,13.10
2019-03-22T08:12:47.213Z,13.10
2019-03-22T08:14:49.515Z,13.10
2019-03-22T08:16:51.793Z,13.40
2019-03-22T08:18:54.281Z,13.50
2019-03-22T08:20:56.489Z,13.40
2019-03-22T08:22:58.705Z,14.20
2019-03-22T08:25:01.153Z,14.50
2019-03-22T08:27:03.437Z,14.80
2019-03-22T08:29:05.918Z,14.70
2019-03-22T08:31:08.227Z,14.20
2019-03-22T08:33:10.509Z,14.90
2019-03-22T08:35:12.709Z,14.80
2019-03-22T08:37:15.190Z,15.10
2019-03-22T08:39:17.669Z,15.40
2019-03-22T08:41:19.920Z,15.80
2019-03-22T08:43:22.243Z,15.70
2019-03-22T08:45:24.847Z,16.00
2019-03-22T08:47:33.996Z,15.10
2019-03-22T08:49:31.377Z,15.80
2019-03-22T08:51:33.957Z,16.10
2019-03-22T08:53:36.173Z,16.00
2019-03-22T08:55:38.508Z,16.10
2019-03-22T08:57:40.798Z,16.20
2019-03-22T08:59:43.102Z,16.40
2019-03-22T09:01:45.317Z,16.60
2019-03-22T09:03:47.536Z,16.80
2019-03-22T09:05:49.741Z,16.90
2019-03-22T09:07:52.010Z,16.70
2019-03-22T09:09:54.261Z,16.30
2019-03-22T09:11:56.478Z,17.10
2019-03-22T09:13:58.801Z,17.30
2019-03-22T09:16:01.053Z,17.30
2019-03-22T09:18:03.314Z,17.30
2019-03-22T09:20:06.162Z,16.50
2019-03-22T09:22:08.497Z,17.20
2019-03-22T09:24:10.777Z,17.50
2019-03-22T09:26:13.077Z,17.20
2019-03-22T09:28:15.305Z,17.50
2019-03-22T09:30:17.768Z,18.10
2019-03-22T09:32:20.242Z,18.00
2019-03-22T09:34:33.160Z,18.50
2019-03-22T09:36:26.884Z,18.00
2019-03-22T09:38:29.178Z,18.40
2019-03-22T09:40:31.425Z,18.20
2019-03-22T09:42:33.738Z,18.30
2019-03-22T09:44:43.341Z,18.80
2019-03-22T09:46:40.679Z,18.30
2019-03-22T09:48:42.987Z,18.30
2019-03-22T09:50:45.273Z,18.70
2019-03-22T09:52:47.756Z,19.00
2019-03-22T09:54:50.030Z,17.60
2019-03-22T09:56:52.408Z,18.80
2019-03-22T09:58:54.671Z,19.00
2019-03-22T10:00:57.387Z,19.20
2019-03-22T10:03:00.134Z,19.10
2019-03-22T10:05:02.786Z,19.10
2019-03-22T10:07:05.285Z,20.40
2019-03-22T10:09:07.877Z,20.70
2019-03-22T10:11:11.193Z,20.40
2019-03-22T10:13:13.692Z,20.80
2019-03-22T10:15:17.381Z,20.00
2019-03-22T10:17:19.986Z,20.00
2019-03-22T10:19:22.354Z,20.50
2019-03-22T10:21:24.760Z,20.50
2019-03-22T10:23:29.425Z,19.90
2019-03-22T10:25:32.153Z,20.80
2019-03-22T10:27:37.707Z,20.70
2019-03-22T10:29:40.237Z,21.60
2019-03-22T10:31:42.982Z,21.90
2019-03-22T10:33:45.324Z,21.70
2019-03-22T10:35:47.622Z,21.80
2019-03-22T10:37:49.832Z,20.70
2019-03-22T10:39:52.034Z,20.60
2019-03-22T10:41:54.248Z,21.40
2019-03-22T10:43:56.623Z,20.10
2019-03-22T10:45:59.217Z,20.80
2019-03-22T10:48:01.490Z,21.40
2019-03-22T10:50:04.327Z,22.10
2019-03-22T10:52:06.526Z,21.80
2019-03-22T10:54:08.738Z,22.50
2019-03-22T10:56:11.325Z,22.60
2019-03-22T10:58:21.001Z,22.00
2019-03-22T11:00:18.993Z,21.30
2019-03-22T11:02:21.189Z,21.10
2019-03-22T11:04:23.401Z,22.30
2019-03-22T11:06:26.555Z,22.20
2019-03-22T11:08:29.424Z,22.30
2019-03-22T11:10:31.618Z,22.90
2019-03-22T11:12:33.825Z,22.80
2019-03-22T11:14:36.054Z,22.50
2019-03-22T11:16:38.357Z,22.10
2019-03-22T11:18:40.584Z,22.30
2019-03-22T11:20:43.033Z,22.50
2019-03-22T11:22:45.309Z,22.60
2019-03-22T11:24:47.961Z,22.10
2019-03-22T11:26:50.452Z,21.20
2019-03-22T11:28:52.661Z,20.60
2019-03-22T11:31:01.139Z,21.10
2019-03-22T11:32:58.977Z,21.70
2019-03-22T11:35:01.190Z,21.60
2019-03-22T11:37:03.393Z,21.70
2019-03-22T11:39:15.155Z,21.10
2019-03-22T11:41:12.107Z,21.10
2019-03-22T11:43:14.329Z,21.00
2019-03-22T11:45:17.097Z,21.30
2019-03-22T11:47:19.309Z,21.40
2019-03-22T11:49:21.525Z,21.30
2019-03-22T11:51:23.734Z,21.10
2019-03-22T11:53:25.949Z,21.30
2019-03-22T11:55:28.153Z,21.20
2019-03-22T11:57:30.365Z,21.50
2019-03-22T11:59:32.578Z,20.90
2019-03-22T12:01:34.784Z,21.50
2019-03-22T12:03:36.998Z,22.10
2019-03-22T12:05:40.641Z,22.80
2019-03-22T12:07:43.105Z,22.50
2019-03-22T12:09:45.316Z,22.60
2019-03-22T12:11:47.525Z,22.90
2019-03-22T12:13:49.716Z,22.00
2019-03-22T12:15:51.915Z,22.60
2019-03-22T12:17:54.151Z,22.60
2019-03-22T12:19:56.456Z,22.20
2019-03-22T12:21:58.661Z,22.10
2019-03-22T12:24:00.892Z,22.90
2019-03-22T12:26:03.505Z,22.90
2019-03-22T12:28:05.985Z,22.90
2019-03-22T12:30:12.845Z,22.90
2019-03-22T12:32:15.041Z,23.20
2019-03-22T12:34:17.517Z,23.40
2019-03-22T12:36:19.727Z,23.30
2019-03-22T12:38:21.934Z,22.90
2019-03-22T12:40:24.151Z,23.70
2019-03-22T12:42:26.357Z,24.00
2019-03-22T12:44:28.571Z,23.70
2019-03-22T12:46:30.784Z,24.00
2019-03-22T12:48:32.989Z,23.90
2019-03-22T12:50:35.205Z,23.50
2019-03-22T12:52:37.409Z,24.20
2019-03-22T12:54:39.609Z,23.30
2019-03-22T12:56:41.828Z,22.80
2019-03-22T12:58:44.037Z,23.50
2019-03-22T13:00:46.369Z,22.90
2019-03-22T13:02:48.696Z,23.40
2019-03-22T13:04:50.897Z,23.20
2019-03-22T13:06:53.271Z,22.70
2019-03-22T13:08:55.717Z,23.20
2019-03-22T13:10:57.928Z,23.10
2019-03-22T13:13:00.138Z,23.30
2019-03-22T13:15:02.702Z,24.30
2019-03-22T13:17:04.914Z,24.00
2019-03-22T13:19:07.117Z,24.10
2019-03-22T13:21:09.442Z,23.70
2019-03-22T13:23:11.653Z,24.30
2019-03-22T13:25:13.989Z,24.40
2019-03-22T13:27:16.196Z,23.80
2019-03-22T13:29:18.397Z,23.10
2019-03-22T13:31:20.610Z,23.20
2019-03-22T13:33:22.817Z,22.80
2019-03-22T13:35:25.025Z,23.20
2019-03-22T13:37:27.241Z,24.20
2019-03-22T13:39:29.449Z,23.30
2019-03-22T13:41:31.652Z,24.60
2019-03-22T13:43:33.865Z,23.80
2019-03-22T13:45:36.080Z,23.80
2019-03-22T13:47:38.272Z,24.10
2019-03-22T13:49:40.477Z,23.90
2019-03-22T13:51:42.789Z,24.10
2019-03-22T13:53:44.994Z,24.00
2019-03-22T13:55:47.225Z,23.50
2019-03-22T13:57:49.534Z,24.30
2019-03-22T13:59:51.756Z,23.90
2019-03-22T14:01:54.070Z,24.40
2019-03-22T14:03:56.640Z,23.20
2019-03-22T14:05:59.018Z,23.80
2019-03-22T14:08:01.227Z,22.90
2019-03-22T14:10:03.765Z,23.30
2019-03-22T14:12:05.965Z,23.30
2019-03-22T14:14:08.437Z,23.50
2019-03-22T14:16:10.648Z,23.70
2019-03-22T14:18:12.857Z,23.30
2019-03-22T14:20:15.066Z,22.40
2019-03-22T14:22:17.274Z,23.00
2019-03-22T14:24:19.477Z,23.10
2019-03-22T14:26:21.690Z,23.00
2019-03-22T14:28:23.890Z,23.40
2019-03-22T14:30:26.105Z,23.40
2019-03-22T14:32:28.308Z,23.30
2019-03-22T14:34:30.516Z,23.40
2019-03-22T14:36:32.907Z,23.30
2019-03-22T14:38:35.109Z,23.20
2019-03-22T14:40:37.329Z,22.50
2019-03-22T14:42:39.527Z,23.00
2019-03-22T14:44:41.729Z,23.60
2019-03-22T14:46:43.946Z,23.30
2019-03-22T14:48:46.141Z,23.60
2019-03-22T14:50:48.350Z,23.50
2019-03-22T14:52:50.554Z,23.00
2019-03-22T14:54:53.081Z,23.30
2019-03-22T14:56:55.308Z,23.20
2019-03-22T14:58:57.505Z,22.80
2019-03-22T15:00:59.729Z,22.90
2019-03-22T15:03:03.837Z,22.60
2019-03-22T15:05:06.036Z,22.50
2019-03-22T15:07:19.224Z,22.40
2019-03-22T15:09:12.357Z,22.20
2019-03-22T15:11:14.820Z,22.40
2019-03-22T15:13:17.417Z,22.50
2019-03-22T15:15:29.222Z,21.70
2019-03-22T15:18:09.747Z,21.30
2019-03-22T15:20:46.874Z,21.70
2019-03-22T15:23:01.323Z,21.50
2019-03-22T15:25:19.562Z,21.60
2019-03-22T15:27:39.933Z,21.30
2019-03-22T15:29:57.615Z,20.70
2019-03-22T15:32:14.086Z,20.60
2019-03-22T15:34:41.989Z,20.40
2019-03-22T15:37:08.207Z,20.30
2019-03-22T15:39:29.918Z,20.00
2019-03-22T15:41:32.836Z,20.20
2019-03-22T15:43:35.037Z,19.90
2019-03-22T15:45:37.239Z,19.60
2019-03-22T15:47:39.784Z,19.80
2019-03-22T15:49:41.973Z,19.90
2019-03-22T15:51:44.189Z,19.80
2019-03-22T15:53:46.688Z,19.50
2019-03-22T15:55:49.206Z,19.60
2019-03-22T15:57:51.497Z,19.60
2019-03-22T15:59:53.993Z,19.40
2019-03-22T16:01:56.210Z,19.30
2019-03-22T16:03:58.653Z,19.20
2019-03-22T16:06:00.853Z,19.20
2019-03-22T16:08:03.099Z,19.10
2019-03-22T16:10:05.946Z,19.10
2019-03-22T16:12:08.159Z,19.10
2019-03-22T16:14:10.365Z,18.90
2019-03-22T16:16:12.565Z,18.70
2019-03-22T16:18:14.778Z,18.80
2019-03-22T16:20:16.980Z,18.80
2019-03-22T16:22:19.193Z,18.70
2019-03-22T16:24:21.394Z,18.70
2019-03-22T16:26:23.592Z,18.70
2019-03-22T16:28:25.809Z,18.60
2019-03-22T16:30:28.292Z,18.50
2019-03-22T16:32:30.505Z,18.40
2019-03-22T16:34:32.706Z,18.50
2019-03-22T16:36:34.910Z,18.40
2019-03-22T16:38:37.120Z,18.30
2019-03-22T16:40:39.317Z,18.20
2019-03-22T16:42:41.530Z,18.10
2019-03-22T16:44:43.734Z,18.20
2019-03-22T16:46:45.932Z,18.10
2019-03-22T16:48:48.145Z,18.00
2019-03-22T16:50:50.350Z,18.00
2019-03-22T16:52:52.840Z,17.90
2019-03-22T16:54:55.032Z,17.90
2019-03-22T16:56:57.258Z,17.90
2019-03-22T16:58:59.461Z,17.70
2019-03-22T17:01:01.657Z,17.70
2019-03-22T17:03:04.857Z,17.60
2019-03-22T17:05:07.085Z,17.60
2019-03-22T17:07:09.541Z,17.50
2019-03-22T17:09:11.733Z,17.40
2019-03-22T17:11:13.934Z,17.40
2019-03-22T17:13:16.143Z,17.30
2019-03-22T17:15:18.354Z,17.30
2019-03-22T17:17:20.573Z,17.20
2019-03-22T17:19:23.117Z,17.10
2019-03-22T17:21:25.321Z,17.10
2019-03-22T17:23:27.551Z,17.00
2019-03-22T17:25:29.745Z,16.90
2019-03-22T17:27:31.956Z,16.80
2019-03-22T17:29:34.153Z,16.80
2019-03-22T17:31:36.366Z,16.70
2019-03-22T17:33:38.578Z,16.70
2019-03-22T17:35:41.033Z,16.70
2019-03-22T17:37:43.249Z,16.60
2019-03-22T17:39:45.445Z,16.60
2019-03-22T17:41:47.908Z,16.50
2019-03-22T17:43:50.113Z,16.40
2019-03-22T17:45:52.313Z,16.30
2019-03-22T17:47:54.525Z,16.30
2019-03-22T17:49:56.733Z,16.20
2019-03-22T17:51:58.933Z,16.20
2019-03-22T17:54:01.147Z,16.20
2019-03-22T17:56:03.344Z,16.10
2019-03-22T17:58:05.570Z,16.00
2019-03-22T18:00:07.989Z,16.00
2019-03-22T18:02:10.208Z,15.90
2019-03-22T18:04:12.409Z,15.80
2019-03-22T18:06:14.917Z,15.80
2019-03-22T18:08:17.132Z,15.70
2019-03-22T18:10:19.334Z,15.70
2019-03-22T18:12:21.548Z,15.70
2019-03-22T18:14:23.748Z,15.60
2019-03-22T18:16:25.949Z,15.60
2019-03-22T18:18:28.173Z,15.50
2019-03-22T18:20:30.371Z,15.40
2019-03-22T18:22:32.946Z,15.40
2019-03-22T18:24:35.466Z,15.30
2019-03-22T18:26:37.670Z,15.30
2019-03-22T18:29:34.600Z,15.30
2019-03-22T18:31:36.824Z,15.20
2019-03-22T18:33:39.120Z,15.20
2019-03-22T18:35:41.343Z,15.20
2019-03-22T18:37:43.570Z,15.10
2019-03-22T18:39:45.765Z,15.10
2019-03-22T18:41:47.985Z,15.10
2019-03-22T18:43:50.189Z,15.10
2019-03-22T18:45:52.434Z,15.00
2019-03-22T18:47:54.663Z,15.00
2019-03-22T18:49:56.870Z,15.00
2019-03-22T18:51:59.074Z,15.00
2019-03-22T18:54:01.285Z,14.90
2019-03-22T18:56:03.589Z,14.90
2019-03-22T18:58:05.824Z,14.80
2019-03-22T19:00:08.397Z,14.80
2019-03-22T19:02:10.622Z,14.70
2019-03-22T19:04:13.069Z,14.70
2019-03-22T19:06:15.274Z,14.70
2019-03-22T19:08:17.507Z,14.60
2019-03-22T19:10:19.724Z,14.60
2019-03-22T19:12:22.005Z,14.60
2019-03-22T19:14:24.224Z,14.50
2019-03-22T19:16:26.748Z,14.50
2019-03-22T19:18:28.969Z,14.50
2019-03-22T19:20:31.181Z,14.40
2019-03-22T19:22:33.714Z,14.40
2019-03-22T19:24:36.141Z,14.40
2019-03-22T19:26:38.345Z,14.30
2019-03-22T19:28:40.557Z,14.30
2019-03-22T19:30:42.776Z,14.30
2019-03-22T19:32:45.000Z,14.20
2019-03-22T19:34:54.363Z,14.20
2019-03-22T19:36:51.312Z,14.20
2019-03-22T19:38:53.529Z,14.20
2019-03-22T19:40:55.732Z,14.10
2019-03-22T19:42:57.937Z,14.00
2019-03-22T19:45:00.273Z,14.00
2019-03-22T19:47:02.564Z,14.00
2019-03-22T19:49:04.800Z,14.00
2019-03-22T19:51:07.001Z,14.00
2019-03-22T19:53:09.224Z,14.00
2019-03-22T19:55:12.045Z,13.90
2019-03-22T19:57:14.276Z,13.90
2019-03-22T19:59:16.485Z,13.90
2019-03-22T20:01:18.698Z,13.90
2019-03-22T20:03:20.909Z,13.90
2019-03-22T20:05:27.223Z,13.90
2019-03-22T20:07:29.674Z,13.80
2019-03-22T20:09:31.910Z,13.90
2019-03-22T20:11:34.254Z,13.90
2019-03-22T20:13:36.540Z,13.80
2019-03-22T20:15:38.752Z,13.80
2019-03-22T20:17:40.967Z,13.80
2019-03-22T20:19:43.189Z,13.80
2019-03-22T20:21:45.404Z,13.70
2019-03-22T20:23:53.578Z,13.80
2019-03-22T20:25:51.722Z,13.70
2019-03-22T20:27:53.929Z,13.70
2019-03-22T20:29:56.159Z,13.70
2019-03-22T20:31:58.380Z,13.60
2019-03-22T20:34:00.857Z,13.60
2019-03-22T20:36:03.100Z,13.60
2019-03-22T20:38:05.301Z,13.50
2019-03-22T20:40:07.545Z,13.50
2019-03-22T20:42:09.772Z,13.40
2019-03-22T20:44:12.083Z,13.40
2019-03-22T20:46:14.300Z,13.30
2019-03-22T20:48:16.509Z,13.20
2019-03-22T20:50:19.002Z,13.10
2019-03-22T20:52:21.221Z,13.10
2019-03-22T20:54:23.428Z,13.00
2019-03-22T20:56:25.889Z,13.00
2019-03-22T20:58:28.106Z,13.00
2019-03-22T21:00:30.318Z,13.00
2019-03-22T21:02:32.529Z,12.90
2019-03-22T21:04:34.849Z,12.90
2019-03-22T21:06:37.060Z,12.90
2019-03-22T21:08:39.393Z,12.90
2019-03-22T21:10:41.697Z,12.80
2019-03-22T21:12:43.896Z,12.80
2019-03-22T21:14:46.914Z,12.70
2019-03-22T21:16:49.127Z,12.70
2019-03-22T21:18:51.356Z,12.70
2019-03-22T21:20:53.845Z,12.60
2019-03-22T21:22:56.047Z,12.60
2019-03-22T21:24:58.273Z,12.50
2019-03-22T21:27:00.486Z,12.50
2019-03-22T21:29:03.093Z,12.40
2019-03-22T21:31:05.382Z,12.40
2019-03-22T21:33:07.591Z,12.40
2019-03-22T21:35:09.806Z,12.40
2019-03-22T21:37:12.036Z,12.30
2019-03-22T21:39:14.252Z,12.30
2019-03-22T21:41:16.446Z,12.30
2019-03-22T21:43:18.650Z,12.30
2019-03-22T21:45:21.389Z,12.30
2019-03-22T21:47:23.657Z,12.30
2019-03-22T21:49:25.895Z,12.30
2019-03-22T21:51:28.094Z,12.30
2019-03-22T21:53:30.348Z,12.20
2019-03-22T21:55:32.645Z,12.20
2019-03-22T21:57:34.864Z,12.00
2019-03-22T21:59:37.077Z,12.00
2019-03-22T22:01:39.280Z,12.00
2019-03-22T22:03:41.501Z,12.00
2019-03-22T22:05:47.789Z,12.00
2019-03-22T22:07:47.830Z,12.00
2019-03-22T22:09:50.056Z,12.00
2019-03-22T22:11:52.261Z,12.00
2019-03-22T22:13:54.461Z,12.00
2019-03-22T22:15:56.704Z,12.00
2019-03-22T22:17:58.909Z,12.00
2019-03-22T22:20:01.140Z,12.00
2019-03-22T22:22:03.440Z,12.00
2019-03-22T22:24:05.644Z,12.00
2019-03-22T22:26:07.866Z,11.90
2019-03-22T22:28:10.088Z,11.60
2019-03-22T22:30:12.347Z,11.40
2019-03-22T22:32:15.069Z,11.40
2019-03-22T22:34:17.268Z,11.30
2019-03-22T22:36:19.493Z,11.20
2019-03-22T22:38:21.969Z,11.20
2019-03-22T22:40:24.187Z,11.30
2019-03-22T22:42:26.408Z,11.30
2019-03-22T22:44:28.621Z,11.10
2019-03-22T22:46:30.855Z,10.90
2019-03-22T22:48:33.061Z,10.70
2019-03-22T22:50:35.282Z,10.60
2019-03-22T22:52:37.522Z,10.60
2019-03-22T22:54:39.718Z,10.50
2019-03-22T22:56:41.969Z,10.50
2019-03-22T22:58:44.165Z,10.60
2019-03-22T23:00:46.486Z,10.60
2019-03-22T23:02:48.790Z,10.60
2019-03-22T23:04:51.015Z,10.60
2019-03-22T23:06:53.229Z,10.60
2019-03-22T23:08:55.762Z,10.60
2019-03-22T23:10:57.980Z,10.70
2019-03-22T23:13:00.189Z,10.70
2019-03-22T23:15:02.547Z,10.70
2019-03-22T23:17:04.972Z,10.80
2019-03-22T23:19:07.195Z,10.80
2019-03-22T23:21:09.496Z,10.80
2019-03-22T23:23:11.702Z,10.70
2019-03-22T23:25:13.916Z,10.70
2019-03-22T23:27:16.134Z,10.70
2019-03-22T23:29:18.350Z,10.50
2019-03-22T23:31:20.561Z,10.50
2019-03-22T23:33:22.773Z,10.50
2019-03-22T23:35:25.434Z,10.40
2019-03-22T23:37:27.639Z,10.50
2019-03-22T23:39:29.841Z,10.40
2019-03-22T23:41:32.056Z,10.50
2019-03-22T23:43:34.270Z,10.50
2019-03-22T23:45:36.492Z,10.50
2019-03-22T23:47:38.689Z,10.50
2019-03-22T23:49:40.914Z,10.40
2019-03-22T23:51:43.381Z,10.40
2019-03-22T23:53:45.585Z,10.50
2019-03-22T23:55:47.800Z,10.40
2019-03-22T23:57:50.018Z,10.40
2019-03-22T23:59:52.225Z,10.50
